Gogama, Canada
Current Conditions -  °F | °C
As of 3:35 PM on Thursday 29 Jan 2015 (Local Time) from CYTS Reporting Station
Heavy Snow Heavy Snow  
Wind Chill: -14°   Ceiling: 200
Heat Index: -6°   Visibility: 0.25mi
Dew Point: -7°   Wind: 18mph
Humidity: 93%   Direction: 330°NNW
Pressure: 29.7"   Gusts: 25mph
Location:  47.67°N, 81.72°W
Report Text: CYTS 292035Z 33016G22KT 290V350 1/4SM +SN VV002 M06/M07 A2970 RMK SN8 WND SHFT SLP077
Loading
Personal Weather Stations






























Interactive Weather Map New forecast layout! Learn more

10-Day Weather Forecast

Advertisements
Track Severe Weather on mobile